createdAt,value
2022-09-07T00:00:28.970Z,8.41
2022-09-07T00:05:35.207Z,8.37
2022-09-07T00:10:41.857Z,8.49
2022-09-07T00:15:48.259Z,8.13
2022-09-07T00:20:54.811Z,8.13
2022-09-07T00:26:01.021Z,8.17
2022-09-07T00:31:07.176Z,8.62
2022-09-07T00:36:13.366Z,8.38
2022-09-07T00:41:19.689Z,8.19
2022-09-07T00:46:25.978Z,8.07
2022-09-07T00:51:32.080Z,7.86
2022-09-07T00:56:38.463Z,8.32
2022-09-07T01:01:44.870Z,8.62
2022-09-07T01:06:51.195Z,8.78
2022-09-07T01:11:57.411Z,8.80
2022-09-07T01:17:03.662Z,8.88
2022-09-07T01:22:10.117Z,8.36
2022-09-07T01:27:16.493Z,8.99
2022-09-07T01:32:22.609Z,8.59
2022-09-07T01:37:28.910Z,8.13
2022-09-07T01:42:35.049Z,8.43
2022-09-07T01:47:41.381Z,8.00
2022-09-07T01:52:47.522Z,8.70
2022-09-07T01:57:53.841Z,8.71
2022-09-07T02:03:00.042Z,8.97
2022-09-07T02:08:06.295Z,9.38
2022-09-07T02:13:12.440Z,8.99
2022-09-07T02:18:18.799Z,9.04
2022-09-07T02:23:25.033Z,9.04
2022-09-07T02:28:31.293Z,9.10
2022-09-07T02:33:37.462Z,8.88
2022-09-07T02:38:43.970Z,9.27
2022-09-07T02:43:50.090Z,8.25
2022-09-07T02:48:56.379Z,9.38
2022-09-07T02:54:02.736Z,8.83
2022-09-07T02:59:08.910Z,7.58
2022-09-07T03:04:15.068Z,7.57
2022-09-07T03:09:21.387Z,7.81
2022-09-07T03:14:27.475Z,7.62
2022-09-07T03:19:33.985Z,7.92
2022-09-07T03:24:40.315Z,8.21
2022-09-07T03:29:46.965Z,8.59
2022-09-07T03:34:53.076Z,9.46
2022-09-07T03:39:59.781Z,9.78
2022-09-07T03:45:06.029Z,9.88
2022-09-07T03:50:12.488Z,9.11
2022-09-07T03:55:18.630Z,10.46
2022-09-07T04:00:25.104Z,10.05
2022-09-07T04:05:31.306Z,10.73
2022-09-07T04:10:37.670Z,11.66
2022-09-07T04:15:43.886Z,11.60
2022-09-07T04:20:50.309Z,11.38
2022-09-07T04:25:56.832Z,12.63
2022-09-07T04:31:03.150Z,12.45
2022-09-07T04:36:09.333Z,11.98
2022-09-07T04:41:15.657Z,11.49
2022-09-07T04:46:22.089Z,11.55
2022-09-07T04:51:28.461Z,12.71
2022-09-07T04:56:34.597Z,12.55
2022-09-07T05:01:41.006Z,12.49
2022-09-07T05:06:47.104Z,13.25
2022-09-07T05:11:53.288Z,12.69
2022-09-07T05:16:59.456Z,12.42
2022-09-07T05:22:05.765Z,12.96
2022-09-07T05:27:11.972Z,13.53
2022-09-07T05:32:18.441Z,13.24
2022-09-07T05:37:24.667Z,14.21
2022-09-07T05:42:31.730Z,13.73
2022-09-07T05:48:52.705Z,15.15
2022-09-07T05:53:59.072Z,13.89
2022-09-07T05:59:05.204Z,13.91
2022-09-07T06:04:11.639Z,14.47
2022-09-07T06:09:17.784Z,14.86
2022-09-07T06:14:24.248Z,16.51
2022-09-07T06:19:30.500Z,17.86
2022-09-07T06:24:36.908Z,18.01
2022-09-07T06:29:43.076Z,17.83
2022-09-07T06:34:49.427Z,17.64
2022-09-07T06:39:55.886Z,17.55
2022-09-07T06:45:02.172Z,18.10
2022-09-07T06:50:08.407Z,18.33
2022-09-07T06:55:14.654Z,18.71
2022-09-07T07:00:20.782Z,19.12
2022-09-07T07:05:27.076Z,18.29
2022-09-07T07:10:33.181Z,18.96
2022-09-07T07:15:39.466Z,18.97
2022-09-07T07:20:45.573Z,20.13
2022-09-07T07:25:51.788Z,19.22
2022-09-07T07:30:58.096Z,18.40
2022-09-07T07:36:04.586Z,18.56
2022-09-07T07:46:17.501Z,16.57
2022-09-07T07:51:23.808Z,16.41
2022-09-07T07:56:30.032Z,15.76
2022-09-07T08:01:36.227Z,15.36
2022-09-07T08:06:42.310Z,15.92
2022-09-07T08:11:48.528Z,15.58
2022-09-07T08:16:54.784Z,15.35
2022-09-07T08:22:00.875Z,14.62
2022-09-07T08:27:07.141Z,14.44
2022-09-07T08:32:13.200Z,13.17
2022-09-07T08:37:19.384Z,12.58
2022-09-07T08:42:25.443Z,12.27
2022-09-07T08:47:31.601Z,11.52
2022-09-07T08:52:37.908Z,11.51
2022-09-07T08:57:44.004Z,11.20
2022-09-07T09:07:56.225Z,10.62
2022-09-07T09:13:02.301Z,9.60
2022-09-07T09:18:11.185Z,8.78
2022-09-07T09:23:14.236Z,9.44
2022-09-07T09:28:20.473Z,8.46
2022-09-07T09:33:26.540Z,6.68
2022-09-07T09:38:32.775Z,6.32
2022-09-07T09:43:39.536Z,6.41
2022-09-07T09:48:45.911Z,6.16
2022-09-07T09:53:52.119Z,5.19
2022-09-07T09:59:05.943Z,5.46
2022-09-07T10:04:06.329Z,5.46
2022-09-07T10:09:09.708Z,6.89
2022-09-07T10:14:15.920Z,5.79
2022-09-07T10:19:22.419Z,5.77
2022-09-07T10:24:28.779Z,6.95
2022-09-07T10:29:36.004Z,6.29
2022-09-07T10:34:41.218Z,5.62
2022-09-07T10:39:47.495Z,4.62
2022-09-07T10:41:00.235Z,5.88
2022-09-07T10:46:06.339Z,5.19
2022-09-07T10:51:21.410Z,4.76
2022-09-07T10:56:27.498Z,4.95
2022-09-07T11:01:33.678Z,5.50
2022-09-07T11:06:40.130Z,6.75
2022-09-07T11:12:02.765Z,4.69
2022-09-07T11:16:52.547Z,6.13
2022-09-07T11:21:59.256Z,6.03
2022-09-07T11:27:05.309Z,6.15
2022-09-07T11:32:11.537Z,8.52
2022-09-07T11:37:17.608Z,8.47
2022-09-07T11:42:44.141Z,7.58
2022-09-07T11:47:29.803Z,6.89
2022-09-07T11:52:36.048Z,8.53
2022-09-07T11:57:42.205Z,8.13
2022-09-07T12:02:59.281Z,7.83
2022-09-07T12:07:54.000Z,8.71
2022-09-07T12:13:00.133Z,9.55
2022-09-07T12:19:04.025Z,8.42
2022-09-07T12:24:10.285Z,8.10
2022-09-07T12:29:16.339Z,8.16
2022-09-07T12:34:22.553Z,8.14
2022-09-07T12:39:28.784Z,9.66
2022-09-07T12:44:34.917Z,10.60
2022-09-07T12:49:41.118Z,9.69
2022-09-07T12:54:55.784Z,9.25
2022-09-07T12:59:53.106Z,10.22
2022-09-07T13:04:59.708Z,10.74
2022-09-07T13:10:05.790Z,9.82
2022-09-07T13:15:22.507Z,10.65
2022-09-07T13:20:17.515Z,10.35
2022-09-07T13:25:23.931Z,9.46
2022-09-07T13:30:30.108Z,6.98
2022-09-07T13:35:36.142Z,8.35
2022-09-07T13:40:42.308Z,8.47
2022-09-07T13:45:48.673Z,10.99
2022-09-07T13:50:55.262Z,8.43
2022-09-07T13:56:01.450Z,8.77
2022-09-07T14:01:07.580Z,7.96
2022-09-07T14:06:13.874Z,10.20
2022-09-07T14:11:19.971Z,10.69
2022-09-07T14:16:26.281Z,9.66
2022-09-07T14:21:32.305Z,7.96
2022-09-07T14:26:38.568Z,8.82
2022-09-07T14:31:45.691Z,9.45
2022-09-07T14:36:50.901Z,7.64
2022-09-07T14:41:56.955Z,7.98
2022-09-07T14:47:03.298Z,7.64
2022-09-07T14:52:09.478Z,9.58
2022-09-07T14:57:15.637Z,9.08
2022-09-07T15:02:22.211Z,9.13
2022-09-07T15:07:28.229Z,8.27
2022-09-07T15:12:38.906Z,7.05
2022-09-07T15:17:43.700Z,5.31
2022-09-07T15:22:45.952Z,6.08
2022-09-07T15:27:51.505Z,6.40
2022-09-07T15:32:57.795Z,5.58
2022-09-07T15:38:05.398Z,5.31
2022-09-07T15:43:20.062Z,5.50
2022-09-07T15:48:15.635Z,6.02
2022-09-07T15:58:27.586Z,5.60
2022-09-07T16:03:34.374Z,5.93
2022-09-07T16:08:40.609Z,5.25
2022-09-07T16:13:47.045Z,4.38
2022-09-07T16:18:52.386Z,4.16
2022-09-07T16:23:58.547Z,4.44
2022-09-07T16:29:05.238Z,4.74
2022-09-07T16:34:11.391Z,4.91
2022-09-07T16:39:17.975Z,4.38
2022-09-07T16:44:24.454Z,5.00
2022-09-07T16:49:30.678Z,4.91
2022-09-07T16:54:36.800Z,4.99
2022-09-07T16:59:43.034Z,4.78
2022-09-07T17:04:49.102Z,4.04
2022-09-07T17:09:55.286Z,4.12
2022-09-07T17:15:01.440Z,4.13
2022-09-07T17:20:07.654Z,4.55
2022-09-07T17:25:14.233Z,5.12
2022-09-07T17:30:20.866Z,5.95
2022-09-07T17:35:26.763Z,4.74
2022-09-07T17:40:33.392Z,4.32
2022-09-07T17:45:39.470Z,4.20
2022-09-07T17:50:46.393Z,4.26
2022-09-07T17:55:52.800Z,4.26
2022-09-07T18:00:59.723Z,4.44
2022-09-07T18:06:05.253Z,4.06
2022-09-07T18:16:17.469Z,4.12
2022-09-07T18:21:23.709Z,4.22
2022-09-07T18:26:30.166Z,4.52
2022-09-07T18:31:36.897Z,3.79
2022-09-07T18:36:43.945Z,4.23
2022-09-07T18:41:48.861Z,4.88
2022-09-07T18:46:55.362Z,4.03
2022-09-07T18:57:07.319Z,4.66
2022-09-07T19:02:13.616Z,4.78
2022-09-07T19:07:19.696Z,4.79
2022-09-07T19:12:25.898Z,4.91
2022-09-07T19:17:32.027Z,4.82
2022-09-07T19:22:38.242Z,5.19
2022-09-07T19:27:44.507Z,5.31
2022-09-07T19:32:50.663Z,4.97
2022-09-07T19:37:57.160Z,4.96
2022-09-07T19:43:03.393Z,5.46
2022-09-07T19:48:09.520Z,5.23
2022-09-07T19:53:15.774Z,5.70
2022-09-07T19:58:21.833Z,5.83
2022-09-07T20:03:28.312Z,5.84
2022-09-07T20:08:34.336Z,5.91
2022-09-07T20:13:40.786Z,6.04
2022-09-07T20:18:46.836Z,6.01
2022-09-07T20:23:53.202Z,6.31
2022-09-07T20:29:16.809Z,6.55
2022-09-07T20:34:05.116Z,7.21
2022-09-07T20:39:11.525Z,7.61
2022-09-07T20:44:17.764Z,7.74
2022-09-07T20:49:23.975Z,7.92
2022-09-07T20:54:30.308Z,8.56
2022-09-07T20:59:36.689Z,10.75
2022-09-07T21:04:43.010Z,10.07
2022-09-07T21:09:49.125Z,11.05
2022-09-07T21:14:58.272Z,10.95
2022-09-07T21:20:04.321Z,11.38
2022-09-07T21:25:10.487Z,11.40
2022-09-07T21:30:16.943Z,12.53
2022-09-07T21:35:23.586Z,12.73
2022-09-07T21:40:29.777Z,12.51
2022-09-07T21:45:36.359Z,13.06
2022-09-07T21:50:42.475Z,13.75
2022-09-07T21:55:48.813Z,13.88
2022-09-07T22:00:55.166Z,13.96
2022-09-07T22:06:01.801Z,13.93
2022-09-07T22:11:08.343Z,14.60
2022-09-07T22:16:14.520Z,14.28
2022-09-07T22:21:20.573Z,14.88
2022-09-07T22:26:26.966Z,16.36
2022-09-07T22:31:33.150Z,17.01
2022-09-07T22:36:39.375Z,17.88
2022-09-07T22:41:45.782Z,17.45
2022-09-07T22:46:52.187Z,17.54
2022-09-07T22:51:58.308Z,17.64
2022-09-07T22:57:04.828Z,17.87
2022-09-07T23:02:10.888Z,18.93
2022-09-07T23:07:17.057Z,19.41
2022-09-07T23:12:23.177Z,20.21
2022-09-07T23:17:29.387Z,20.26
2022-09-07T23:22:35.896Z,20.34
2022-09-07T23:27:42.146Z,20.49
2022-09-07T23:32:49.120Z,19.66
2022-09-07T23:37:55.450Z,19.20
2022-09-07T23:43:01.547Z,19.50
2022-09-07T23:48:07.682Z,20.52
2022-09-07T23:53:13.893Z,19.53
2022-09-07T23:58:20.142Z,20.39
